createdAt,value
2023-02-11T00:00:58.643Z,69.11
2023-02-11T00:03:26.281Z,69.22
2023-02-11T00:05:58.898Z,69.34
2023-02-11T00:08:26.678Z,69.56
2023-02-11T00:10:57.513Z,69.64
2023-02-11T00:13:25.134Z,70.01
2023-02-11T00:15:52.510Z,70.12
2023-02-11T00:18:19.743Z,70.24
2023-02-11T00:20:47.130Z,70.81
2023-02-11T00:23:15.009Z,71.18
2023-02-11T00:25:43.919Z,70.91
2023-02-11T00:28:12.095Z,71.42
2023-02-11T00:30:39.651Z,71.68
2023-02-11T00:33:07.484Z,71.69
2023-02-11T00:35:37.937Z,71.17
2023-02-11T00:38:05.319Z,71.25
2023-02-11T00:40:32.919Z,71.45
2023-02-11T00:43:00.622Z,71.05
2023-02-11T00:45:28.912Z,70.77
2023-02-11T00:47:56.841Z,70.35
2023-02-11T00:50:24.755Z,70.56
2023-02-11T00:52:52.324Z,70.28
2023-02-11T00:55:19.917Z,70.34
2023-02-11T00:57:47.146Z,70.44
2023-02-11T01:00:15.341Z,70.24
2023-02-11T01:02:42.763Z,70.10
2023-02-11T01:05:10.091Z,69.77
2023-02-11T01:07:37.621Z,69.71
2023-02-11T01:10:05.144Z,69.78
2023-02-11T01:12:35.947Z,69.64
2023-02-11T01:15:04.803Z,69.69
2023-02-11T01:17:32.327Z,69.52
2023-02-11T01:19:59.932Z,69.49
2023-02-11T01:22:27.348Z,69.39
2023-02-11T01:24:54.933Z,69.42
2023-02-11T01:27:22.176Z,69.61
2023-02-11T01:29:49.668Z,69.52
2023-02-11T01:32:17.092Z,69.67
2023-02-11T01:34:44.787Z,69.49
2023-02-11T01:37:12.341Z,69.49
2023-02-11T01:39:39.941Z,69.56
2023-02-11T01:42:07.676Z,69.77
2023-02-11T01:44:37.946Z,69.44
2023-02-11T01:47:06.576Z,69.58
2023-02-11T01:49:36.844Z,69.58
2023-02-11T01:52:11.679Z,70.08
2023-02-11T01:55:03.949Z,69.98
2023-02-11T01:57:33.190Z,70.05
2023-02-11T02:00:18.372Z,70.13
2023-02-11T02:03:08.684Z,70.29
2023-02-11T02:05:38.878Z,70.08
2023-02-11T02:08:34.494Z,69.96
2023-02-11T02:11:01.819Z,70.18
2023-02-11T02:13:31.806Z,70.33
2023-02-11T02:16:09.646Z,70.25
2023-02-11T02:18:46.323Z,70.39
2023-02-11T02:21:25.668Z,70.35
2023-02-11T02:23:53.060Z,70.25
2023-02-11T02:26:36.962Z,70.22
2023-02-11T02:29:19.478Z,70.26
2023-02-11T02:32:11.053Z,70.49
2023-02-11T02:35:03.691Z,70.41
2023-02-11T02:37:46.382Z,70.56
2023-02-11T02:40:20.775Z,70.53
2023-02-11T02:42:48.698Z,70.61
2023-02-11T02:45:16.386Z,70.79
2023-02-11T02:47:44.077Z,70.76
2023-02-11T02:50:12.355Z,71.01
2023-02-11T02:53:04.351Z,71.28
2023-02-11T02:55:31.583Z,71.14
2023-02-11T02:58:08.798Z,71.04
2023-02-11T03:00:54.310Z,70.99
2023-02-11T03:03:44.328Z,71.03
2023-02-11T03:06:15.793Z,71.23
2023-02-11T03:08:59.987Z,71.07
2023-02-11T03:11:29.529Z,71.18
2023-02-11T03:13:57.224Z,71.27
2023-02-11T03:16:27.649Z,71.47
2023-02-11T03:19:05.413Z,71.46
2023-02-11T03:21:34.199Z,71.41
2023-02-11T03:24:06.348Z,71.33
2023-02-11T03:26:39.808Z,71.51
2023-02-11T03:29:16.232Z,71.40
2023-02-11T03:31:52.759Z,71.74
2023-02-11T03:34:30.104Z,71.60
2023-02-11T03:37:08.646Z,71.42
2023-02-11T03:39:39.715Z,71.49
2023-02-11T03:42:08.108Z,71.28
2023-02-11T03:44:41.112Z,71.27
2023-02-11T03:47:09.821Z,71.18
2023-02-11T03:49:38.948Z,71.12
2023-02-11T03:52:08.001Z,71.13
2023-02-11T03:54:35.831Z,71.18
2023-02-11T03:57:03.121Z,71.10
2023-02-11T03:59:30.721Z,71.01
2023-02-11T04:01:59.719Z,71.09
2023-02-11T04:04:26.961Z,71.11
2023-02-11T04:06:54.568Z,71.04
2023-02-11T04:09:21.960Z,71.04
2023-02-11T04:11:49.443Z,71.12
2023-02-11T04:14:16.840Z,71.49
2023-02-11T04:16:44.369Z,71.22
2023-02-11T04:19:11.728Z,71.31
2023-02-11T04:21:39.140Z,71.67
2023-02-11T04:24:06.845Z,71.36
2023-02-11T04:26:34.264Z,71.31
2023-02-11T04:29:01.732Z,71.06
2023-02-11T04:31:29.124Z,71.12
2023-02-11T04:33:57.271Z,70.80
2023-02-11T04:36:24.854Z,70.74
2023-02-11T04:38:52.456Z,70.55
2023-02-11T04:41:20.160Z,70.73
2023-02-11T04:43:47.737Z,70.70
2023-02-11T04:46:15.298Z,70.52
2023-02-11T04:48:42.743Z,70.22
2023-02-11T04:51:10.466Z,70.25
2023-02-11T04:53:38.174Z,70.26
2023-02-11T04:56:05.868Z,70.23
2023-02-11T04:58:33.604Z,70.34
2023-02-11T05:01:08.366Z,70.32
2023-02-11T05:03:36.608Z,70.39
2023-02-11T05:06:05.010Z,70.32
2023-02-11T05:08:32.636Z,70.54
2023-02-11T05:11:00.179Z,70.78
2023-02-11T05:13:27.748Z,70.26
2023-02-11T05:15:55.183Z,69.75
2023-02-11T05:18:23.027Z,69.41
2023-02-11T05:20:50.755Z,69.17
2023-02-11T05:23:18.299Z,69.22
2023-02-11T05:25:45.891Z,69.17
2023-02-11T05:28:13.396Z,68.98
2023-02-11T05:30:41.217Z,68.79
2023-02-11T05:33:08.757Z,68.83
2023-02-11T05:35:36.304Z,68.84
2023-02-11T05:38:04.023Z,68.43
2023-02-11T05:40:31.715Z,68.76
2023-02-11T05:42:59.203Z,68.84
2023-02-11T05:45:26.642Z,68.65
2023-02-11T05:47:54.207Z,68.55
2023-02-11T05:50:21.829Z,68.73
2023-02-11T05:52:49.415Z,69.03
2023-02-11T05:55:17.211Z,68.88
2023-02-11T05:57:44.907Z,69.05
2023-02-11T06:00:13.503Z,69.16
2023-02-11T06:02:41.371Z,69.06
2023-02-11T06:05:09.154Z,68.84
2023-02-11T06:07:36.769Z,68.79
2023-02-11T06:10:04.585Z,68.87
2023-02-11T06:12:32.135Z,68.68
2023-02-11T06:14:59.579Z,68.14
2023-02-11T06:17:27.229Z,68.29
2023-02-11T06:19:54.778Z,67.62
2023-02-11T06:22:22.583Z,67.37
2023-02-11T06:25:00.736Z,67.36
2023-02-11T06:27:29.683Z,66.89
2023-02-11T06:29:57.249Z,66.46
2023-02-11T06:32:42.940Z,66.46
2023-02-11T06:35:12.433Z,66.01
2023-02-11T06:37:41.266Z,65.49
2023-02-11T06:40:09.159Z,65.09
2023-02-11T06:42:39.205Z,64.26
2023-02-11T06:45:09.381Z,63.68
2023-02-11T06:47:37.781Z,63.43
2023-02-11T06:50:06.053Z,62.82
2023-02-11T06:52:33.347Z,62.57
2023-02-11T06:55:00.976Z,62.17
2023-02-11T06:57:28.680Z,61.31
2023-02-11T06:59:56.355Z,61.63
2023-02-11T07:02:24.376Z,61.36
2023-02-11T07:04:52.082Z,61.14
2023-02-11T07:07:19.793Z,61.10
2023-02-11T07:09:47.685Z,60.76
2023-02-11T07:12:15.360Z,60.89
2023-02-11T07:14:43.087Z,59.64
2023-02-11T07:17:10.691Z,58.80
2023-02-11T07:19:38.794Z,56.58
2023-02-11T07:22:06.289Z,54.72
2023-02-11T07:24:33.796Z,51.92
2023-02-11T07:27:01.553Z,49.75
2023-02-11T07:29:29.490Z,48.56
2023-02-11T07:31:57.191Z,47.16
2023-02-11T07:34:25.164Z,47.29
2023-02-11T07:36:52.800Z,47.73
2023-02-11T07:39:21.980Z,48.04
2023-02-11T07:41:49.697Z,48.03
2023-02-11T07:44:17.556Z,47.61
2023-02-11T07:46:45.854Z,47.34
2023-02-11T07:49:13.296Z,47.36
2023-02-11T07:51:40.805Z,47.33
2023-02-11T07:54:08.568Z,46.99
2023-02-11T07:56:36.113Z,46.90
2023-02-11T07:59:04.582Z,47.63
2023-02-11T08:01:32.114Z,47.48
2023-02-11T08:04:00.817Z,46.94
2023-02-11T08:06:31.580Z,48.23
2023-02-11T08:08:59.658Z,47.66
2023-02-11T08:11:29.008Z,47.77
2023-02-11T08:13:56.947Z,48.16
2023-02-11T08:16:30.102Z,47.64
2023-02-11T08:18:59.669Z,48.16
2023-02-11T08:21:28.123Z,48.30
2023-02-11T08:23:56.120Z,48.52
2023-02-11T08:26:26.811Z,48.72
2023-02-11T08:28:56.401Z,48.61
2023-02-11T08:31:38.929Z,48.58
2023-02-11T08:34:06.911Z,47.75
2023-02-11T08:36:37.820Z,47.54
2023-02-11T08:39:18.483Z,47.29
2023-02-11T08:41:49.324Z,47.87
2023-02-11T08:44:18.417Z,47.33
2023-02-11T08:46:46.130Z,46.89
2023-02-11T08:49:14.684Z,46.43
2023-02-11T08:51:42.683Z,46.43
2023-02-11T08:54:10.690Z,46.00
2023-02-11T08:56:39.033Z,45.80
2023-02-11T08:59:07.514Z,44.37
2023-02-11T09:01:35.117Z,42.86
2023-02-11T09:04:03.029Z,42.76
2023-02-11T09:06:31.029Z,41.55
2023-02-11T09:08:58.430Z,40.77
2023-02-11T09:11:29.476Z,39.09
2023-02-11T09:13:56.953Z,36.76
2023-02-11T09:16:27.273Z,35.60
2023-02-11T09:18:54.908Z,35.00
2023-02-11T09:21:22.352Z,35.88
2023-02-11T09:23:50.717Z,34.90
2023-02-11T09:26:20.607Z,35.77
2023-02-11T09:28:48.998Z,37.16
2023-02-11T09:31:20.071Z,38.41
2023-02-11T09:33:50.616Z,38.24
2023-02-11T09:36:21.619Z,38.47
2023-02-11T09:38:49.619Z,38.56
2023-02-11T09:41:44.623Z,38.29
2023-02-11T09:44:28.626Z,38.34
2023-02-11T09:47:02.044Z,38.31
2023-02-11T09:50:00.842Z,38.11
2023-02-11T09:52:37.068Z,37.98
2023-02-11T09:55:29.633Z,37.79
2023-02-11T09:57:58.096Z,37.47
2023-02-11T10:00:34.317Z,37.21
2023-02-11T10:03:12.499Z,36.69
2023-02-11T10:05:55.386Z,37.04
2023-02-11T10:08:51.992Z,37.19
2023-02-11T10:11:31.685Z,37.69
2023-02-11T10:14:04.318Z,37.51
2023-02-11T10:16:59.394Z,37.58
2023-02-11T10:19:42.179Z,37.25
2023-02-11T10:22:19.095Z,36.79
2023-02-11T10:24:55.316Z,36.63
2023-02-11T10:27:28.883Z,37.81
2023-02-11T10:30:03.184Z,38.43
2023-02-11T10:32:45.771Z,39.74
2023-02-11T10:35:18.792Z,39.22
2023-02-11T10:37:46.765Z,37.16
2023-02-11T10:40:16.660Z,35.12
2023-02-11T10:42:48.662Z,33.41
2023-02-11T10:45:47.430Z,30.95
2023-02-11T10:48:38.422Z,29.90
2023-02-11T10:51:17.118Z,30.41
2023-02-11T10:53:46.420Z,29.83
2023-02-11T10:56:27.689Z,30.05
2023-02-11T10:59:00.128Z,31.85
2023-02-11T11:01:42.143Z,33.49
2023-02-11T11:04:34.140Z,34.27
2023-02-11T11:07:34.107Z,33.74
2023-02-11T11:10:08.610Z,33.06
2023-02-11T11:12:40.359Z,32.24
2023-02-11T11:15:11.404Z,32.05
2023-02-11T11:17:39.203Z,31.63
2023-02-11T11:20:19.553Z,32.54
2023-02-11T11:22:48.442Z,31.96
2023-02-11T11:25:27.842Z,32.38
2023-02-11T11:27:57.913Z,33.26
2023-02-11T11:30:32.337Z,32.33
2023-02-11T11:33:00.445Z,33.39
2023-02-11T11:35:29.446Z,33.85
2023-02-11T11:38:04.130Z,33.34
2023-02-11T11:40:33.447Z,34.59
2023-02-11T11:43:13.453Z,35.65
2023-02-11T11:45:57.129Z,35.35
2023-02-11T11:48:40.185Z,35.19
2023-02-11T11:51:11.273Z,34.88
2023-02-11T11:53:43.371Z,34.18
2023-02-11T11:56:20.517Z,34.98
2023-02-11T11:58:48.802Z,35.33
2023-02-11T12:01:19.216Z,35.78
2023-02-11T12:04:11.681Z,35.98
2023-02-11T12:07:05.500Z,35.53
2023-02-11T12:09:45.140Z,35.32
2023-02-11T12:12:37.465Z,35.58
2023-02-11T12:15:45.141Z,34.59
2023-02-11T12:18:17.141Z,33.88
2023-02-11T12:21:00.003Z,35.02
2023-02-11T12:23:38.153Z,34.67
2023-02-11T12:26:24.493Z,33.85
2023-02-11T12:29:16.719Z,33.77
2023-02-11T12:32:00.271Z,33.81
2023-02-11T12:34:47.479Z,33.67
2023-02-11T12:37:15.152Z,33.61
2023-02-11T12:40:10.406Z,32.23
2023-02-11T12:43:07.916Z,32.61
2023-02-11T12:45:58.203Z,32.81
2023-02-11T12:48:35.402Z,30.56
2023-02-11T12:51:16.491Z,29.28
2023-02-11T12:53:47.424Z,27.12
2023-02-11T12:56:28.827Z,23.82
2023-02-11T12:58:58.166Z,22.71
2023-02-11T13:01:32.839Z,23.09
2023-02-11T13:04:29.503Z,23.74
2023-02-11T13:07:02.514Z,25.64
2023-02-11T13:09:35.088Z,26.88
2023-02-11T13:12:24.178Z,27.94
2023-02-11T13:14:53.877Z,27.88
2023-02-11T13:17:28.182Z,28.02
2023-02-11T13:20:01.559Z,28.69
2023-02-11T13:22:35.842Z,29.39
2023-02-11T13:25:33.049Z,30.33
2023-02-11T13:28:18.579Z,30.93
2023-02-11T13:30:57.687Z,31.25
2023-02-11T13:33:34.073Z,30.23
2023-02-11T13:36:04.356Z,29.88
2023-02-11T13:38:32.354Z,29.88
2023-02-11T13:41:07.017Z,29.96
2023-02-11T13:43:36.383Z,30.16
2023-02-11T13:46:11.958Z,29.33
2023-02-11T13:48:47.197Z,27.75
2023-02-11T13:51:17.776Z,27.84
2023-02-11T13:53:47.934Z,27.97
2023-02-11T13:56:32.366Z,27.41
2023-02-11T13:59:02.408Z,26.85
2023-02-11T14:02:23.566Z,25.04
2023-02-11T14:05:24.484Z,24.86
2023-02-11T14:08:28.796Z,24.15
2023-02-11T14:11:01.496Z,24.38
2023-02-11T14:13:33.549Z,24.00
2023-02-11T14:16:16.978Z,23.97
2023-02-11T14:18:44.935Z,24.02
2023-02-11T14:21:22.092Z,24.31
2023-02-11T14:23:52.866Z,25.24
2023-02-11T14:26:20.490Z,25.10
2023-02-11T14:29:07.683Z,25.77
2023-02-11T14:31:35.321Z,26.64
2023-02-11T14:34:15.225Z,27.28
2023-02-11T14:36:57.225Z,28.60
2023-02-11T14:39:33.229Z,29.36
2023-02-11T14:42:02.002Z,30.16
2023-02-11T14:44:31.896Z,30.54
2023-02-11T14:47:00.157Z,29.98
2023-02-11T14:49:38.334Z,29.50
2023-02-11T14:52:31.453Z,29.38
2023-02-11T14:55:13.600Z,29.03
2023-02-11T14:57:42.579Z,28.83
2023-02-11T15:00:28.599Z,29.07
2023-02-11T15:02:56.602Z,29.68
2023-02-11T15:05:29.187Z,30.88
2023-02-11T15:08:00.260Z,31.55
2023-02-11T15:10:38.742Z,32.22
2023-02-11T15:13:06.426Z,32.79
2023-02-11T15:15:36.293Z,33.49
2023-02-11T15:18:05.003Z,33.87
2023-02-11T15:20:33.979Z,34.59
2023-02-11T15:23:08.898Z,34.69
2023-02-11T15:25:44.209Z,35.49
2023-02-11T15:28:22.063Z,35.92
2023-02-11T15:31:06.710Z,36.83
2023-02-11T15:33:34.261Z,37.15
2023-02-11T15:36:05.443Z,36.96
2023-02-11T15:38:34.260Z,38.01
2023-02-11T15:41:03.615Z,37.77
2023-02-11T15:43:48.267Z,38.16
2023-02-11T15:46:21.427Z,38.81
2023-02-11T15:48:55.979Z,39.73
2023-02-11T15:51:25.480Z,40.34
2023-02-11T15:53:57.152Z,40.70
2023-02-11T15:56:37.981Z,41.04
2023-02-11T15:59:24.274Z,41.21
2023-02-11T16:01:52.973Z,41.78
2023-02-11T16:04:23.710Z,41.95
2023-02-11T16:06:52.002Z,42.36
2023-02-11T16:09:19.984Z,42.26
2023-02-11T16:11:48.036Z,42.58
2023-02-11T16:14:23.861Z,42.77
2023-02-11T16:16:54.297Z,42.74
2023-02-11T16:19:25.374Z,43.14
2023-02-11T16:21:54.287Z,43.23
2023-02-11T16:24:28.268Z,43.71
2023-02-11T16:26:58.640Z,43.76
2023-02-11T16:29:29.991Z,44.31
2023-02-11T16:32:16.992Z,44.40
2023-02-11T16:34:45.092Z,44.69
2023-02-11T16:37:12.994Z,44.88
2023-02-11T16:39:41.084Z,45.26
2023-02-11T16:42:13.141Z,45.46
2023-02-11T16:44:40.485Z,46.03
2023-02-11T16:47:11.177Z,46.44
2023-02-11T16:49:42.494Z,47.26
2023-02-11T16:52:14.867Z,47.23
2023-02-11T16:54:43.007Z,47.24
2023-02-11T16:57:30.473Z,47.58
2023-02-11T16:59:59.470Z,47.58
2023-02-11T17:02:29.310Z,47.81
2023-02-11T17:05:00.117Z,48.47
2023-02-11T17:07:28.045Z,48.58
2023-02-11T17:09:55.897Z,49.27
2023-02-11T17:12:26.879Z,49.27
2023-02-11T17:14:54.885Z,48.89
2023-02-11T17:17:24.072Z,49.39
2023-02-11T17:19:52.107Z,49.00
2023-02-11T17:22:20.007Z,49.14
2023-02-11T17:24:47.672Z,48.79
2023-02-11T17:27:15.675Z,49.62
2023-02-11T17:29:43.889Z,49.45
2023-02-11T17:32:13.091Z,49.25
2023-02-11T17:34:41.681Z,49.99
2023-02-11T17:37:11.805Z,49.71
2023-02-11T17:39:40.078Z,49.81
2023-02-11T17:42:08.865Z,49.80
2023-02-11T17:44:36.896Z,50.08
2023-02-11T17:47:04.765Z,49.86
2023-02-11T17:49:32.337Z,50.87
2023-02-11T17:52:00.127Z,50.49
2023-02-11T17:54:27.998Z,50.23
2023-02-11T17:56:58.216Z,50.92
2023-02-11T17:59:26.540Z,50.66
2023-02-11T18:01:54.140Z,50.42
2023-02-11T18:04:22.129Z,50.61
2023-02-11T18:06:50.702Z,50.29
2023-02-11T18:09:18.345Z,50.01
2023-02-11T18:11:46.912Z,50.02
2023-02-11T18:14:14.914Z,49.17
2023-02-11T18:16:45.074Z,48.98
2023-02-11T18:19:13.150Z,48.98
2023-02-11T18:21:40.918Z,49.03
2023-02-11T18:24:08.795Z,48.28
2023-02-11T18:26:36.920Z,48.38
2023-02-11T18:29:06.537Z,47.86
2023-02-11T18:31:35.704Z,48.05
2023-02-11T18:34:07.684Z,48.04
2023-02-11T18:36:36.573Z,48.29
2023-02-11T18:39:05.203Z,48.12
2023-02-11T18:41:32.709Z,48.31
2023-02-11T18:44:03.176Z,48.35
2023-02-11T18:46:31.473Z,48.33
2023-02-11T18:49:00.752Z,48.15
2023-02-11T18:51:28.908Z,48.85
2023-02-11T18:53:56.182Z,48.62
2023-02-11T18:56:27.948Z,48.50
2023-02-11T18:58:57.047Z,48.55
2023-02-11T19:01:27.364Z,48.61
2023-02-11T19:03:57.500Z,48.37
2023-02-11T19:06:28.147Z,48.51
2023-02-11T19:08:59.715Z,48.21
2023-02-11T19:11:50.399Z,48.63
2023-02-11T19:14:31.594Z,47.69
2023-02-11T19:17:01.169Z,47.34
2023-02-11T19:19:31.135Z,47.63
2023-02-11T19:22:00.083Z,47.97
2023-02-11T19:24:29.011Z,47.81
2023-02-11T19:26:59.393Z,47.54
2023-02-11T19:29:27.959Z,48.00
2023-02-11T19:31:56.140Z,47.95
2023-02-11T19:34:23.766Z,48.29
2023-02-11T19:36:51.565Z,47.95
2023-02-11T19:39:19.401Z,48.21
2023-02-11T19:41:47.060Z,48.57
2023-02-11T19:44:15.063Z,48.81
2023-02-11T19:46:42.934Z,49.03
2023-02-11T19:49:12.397Z,49.14
2023-02-11T19:51:40.064Z,49.05
2023-02-11T19:54:08.150Z,50.18
2023-02-11T19:56:38.063Z,49.77
2023-02-11T19:59:09.113Z,50.01
2023-02-11T20:01:37.249Z,50.16
2023-02-11T20:04:04.979Z,50.27
2023-02-11T20:06:33.625Z,51.18
2023-02-11T20:09:04.073Z,50.63
2023-02-11T20:11:32.976Z,51.06
2023-02-11T20:14:01.076Z,51.12
2023-02-11T20:16:46.214Z,52.09
2023-02-11T20:19:18.798Z,52.25
2023-02-11T20:21:48.278Z,52.34
2023-02-11T20:24:19.148Z,52.91
2023-02-11T20:26:48.342Z,52.85
2023-02-11T20:29:17.450Z,52.68
2023-02-11T20:31:45.610Z,52.93
2023-02-11T20:34:13.656Z,52.98
2023-02-11T20:36:41.311Z,53.30
2023-02-11T20:39:11.188Z,53.19
2023-02-11T20:41:40.225Z,54.09
2023-02-11T20:44:10.644Z,54.42
2023-02-11T20:46:40.559Z,55.13
2023-02-11T20:49:17.316Z,57.21
2023-02-11T20:51:45.652Z,56.80
2023-02-11T20:54:15.431Z,56.98
2023-02-11T20:56:44.064Z,57.05
2023-02-11T20:59:14.062Z,56.31
2023-02-11T21:01:44.044Z,57.43
2023-02-11T21:04:25.666Z,58.73
2023-02-11T21:06:56.235Z,58.62
2023-02-11T21:09:27.830Z,60.67
2023-02-11T21:11:56.087Z,60.90
2023-02-11T21:14:25.141Z,60.99
2023-02-11T21:16:53.019Z,62.40
2023-02-11T21:19:21.518Z,62.07
2023-02-11T21:21:49.941Z,65.18
2023-02-11T21:24:17.834Z,64.05
2023-02-11T21:26:45.537Z,62.17
2023-02-11T21:29:13.455Z,62.89
2023-02-11T21:31:41.180Z,62.96
2023-02-11T21:34:08.690Z,63.22
2023-02-11T21:36:37.045Z,64.48
2023-02-11T21:39:05.904Z,62.96
2023-02-11T21:41:33.702Z,62.17
2023-02-11T21:44:01.696Z,62.35
2023-02-11T21:46:29.605Z,63.81
2023-02-11T21:48:58.042Z,62.35
2023-02-11T21:51:26.416Z,63.63
2023-02-11T21:53:58.939Z,63.47
2023-02-11T21:56:29.868Z,62.55
2023-02-11T21:58:58.220Z,63.33
2023-02-11T22:01:31.032Z,63.67
2023-02-11T22:03:59.490Z,65.15
2023-02-11T22:06:31.117Z,65.14
2023-02-11T22:08:59.871Z,63.61
2023-02-11T22:11:27.273Z,65.70
2023-02-11T22:13:56.583Z,64.91
2023-02-11T22:16:24.363Z,64.14
2023-02-11T22:18:52.283Z,64.83
2023-02-11T22:21:22.175Z,66.64
2023-02-11T22:23:50.515Z,65.02
2023-02-11T22:26:20.818Z,67.53
2023-02-11T22:28:48.883Z,66.69
2023-02-11T22:31:20.376Z,67.71
2023-02-11T22:33:48.077Z,68.21
2023-02-11T22:36:23.168Z,68.75
2023-02-11T22:38:51.129Z,70.80
2023-02-11T22:41:18.885Z,69.15
2023-02-11T22:43:46.901Z,69.19
2023-02-11T22:46:17.414Z,68.72
2023-02-11T22:48:45.290Z,69.91
2023-02-11T22:51:20.885Z,71.52
2023-02-11T22:53:56.889Z,69.70
2023-02-11T22:56:25.307Z,69.95
2023-02-11T22:58:54.007Z,70.21
2023-02-11T23:01:21.327Z,70.69
2023-02-11T23:03:49.103Z,70.10
2023-02-11T23:06:17.132Z,70.44
2023-02-11T23:08:45.148Z,70.28
2023-02-11T23:11:15.903Z,70.76
2023-02-11T23:13:45.131Z,71.38
2023-02-11T23:16:16.142Z,71.65
2023-02-11T23:18:44.910Z,72.56
2023-02-11T23:21:32.917Z,71.84
2023-02-11T23:24:06.323Z,73.88
2023-02-11T23:26:34.097Z,73.18
2023-02-11T23:29:01.778Z,72.24
2023-02-11T23:31:37.739Z,72.60
2023-02-11T23:34:09.042Z,72.38
2023-02-11T23:36:37.075Z,73.01
2023-02-11T23:39:05.124Z,73.41
2023-02-11T23:41:32.545Z,74.31
2023-02-11T23:44:00.348Z,73.92
2023-02-11T23:46:28.191Z,74.17
2023-02-11T23:48:55.936Z,74.16
2023-02-11T23:51:23.936Z,74.13
2023-02-11T23:53:52.936Z,75.72
2023-02-11T23:56:22.935Z,77.70
2023-02-11T23:58:52.152Z,75.12
